createdAt,value
2023-04-08T00:02:31.317Z,12.10
2023-04-08T00:17:33.995Z,11.67
2023-04-08T00:32:36.524Z,12.20
2023-04-08T00:47:39.513Z,13.17
2023-04-08T01:03:00.508Z,12.53
2023-04-08T01:18:07.339Z,12.80
2023-04-08T01:33:15.385Z,13.50
2023-04-08T01:48:18.403Z,12.77
2023-04-08T02:03:24.310Z,12.13
2023-04-08T02:18:29.865Z,12.50
2023-04-08T02:33:35.125Z,13.53
2023-04-08T02:48:37.823Z,13.47
2023-04-08T03:03:41.083Z,12.20
2023-04-08T03:18:43.657Z,13.90
2023-04-08T03:33:46.268Z,15.40
2023-04-08T03:48:49.138Z,14.47
2023-04-08T04:03:51.961Z,14.90
2023-04-08T04:18:54.698Z,15.40
2023-04-08T04:33:57.154Z,16.47
2023-04-08T04:49:00.230Z,16.57
2023-04-08T05:04:02.924Z,19.17
2023-04-08T05:19:05.583Z,18.43
2023-04-08T05:34:08.124Z,20.17
2023-04-08T05:49:10.568Z,19.00
2023-04-08T06:04:13.138Z,21.93
2023-04-08T06:19:15.575Z,21.33
2023-04-08T06:34:17.981Z,19.33
2023-04-08T06:49:20.374Z,20.40
2023-04-08T07:04:23.200Z,22.57
2023-04-08T07:19:25.876Z,23.30
2023-04-08T07:34:28.315Z,21.10
2023-04-08T07:49:30.939Z,26.93
2023-04-08T08:04:33.593Z,20.80
2023-04-08T08:19:36.299Z,22.70
2023-04-08T08:34:38.777Z,21.50
2023-04-08T08:49:41.623Z,25.30
2023-04-08T09:04:58.181Z,24.57
2023-04-08T09:20:13.004Z,22.70
2023-04-08T09:35:24.978Z,24.13
2023-04-08T09:50:32.458Z,23.10
2023-04-08T10:05:40.692Z,23.97
2023-04-08T10:20:47.579Z,24.70
2023-04-08T10:35:54.620Z,25.27
2023-04-08T10:51:00.266Z,25.97
2023-04-08T11:06:03.847Z,28.27
2023-04-08T11:21:10.350Z,25.13
2023-04-08T11:36:13.071Z,23.40
2023-04-08T11:51:16.120Z,26.43
2023-04-08T12:06:18.487Z,21.80
2023-04-08T12:21:21.081Z,24.13
2023-04-08T12:36:23.915Z,22.90
2023-04-08T12:51:26.522Z,16.83
2023-04-08T13:06:29.156Z,13.73
2023-04-08T13:21:32.253Z,13.17
2023-04-08T13:36:34.706Z,10.73
2023-04-08T13:51:37.384Z,7.77
2023-04-08T14:06:39.837Z,11.80
2023-04-08T14:21:42.579Z,12.93
2023-04-08T14:36:58.965Z,13.30
2023-04-08T14:52:01.513Z,12.03
2023-04-08T15:07:04.007Z,11.83
2023-04-08T15:22:06.670Z,14.90
2023-04-08T15:37:09.308Z,11.10
2023-04-08T15:52:11.840Z,9.97
2023-04-08T16:07:14.338Z,13.20
2023-04-08T16:22:16.797Z,9.90
2023-04-08T16:37:19.199Z,9.00
2023-04-08T16:52:21.595Z,9.57
2023-04-08T17:07:24.797Z,14.33
2023-04-08T17:22:30.511Z,17.33
2023-04-08T17:37:32.813Z,13.60
2023-04-08T17:52:35.182Z,14.30
2023-04-08T18:07:37.641Z,18.67
2023-04-08T18:22:40.089Z,16.00
2023-04-08T18:37:43.385Z,20.40
2023-04-08T18:52:45.935Z,20.57
2023-04-08T19:07:48.515Z,23.07
2023-04-08T19:22:51.047Z,26.77
2023-04-08T19:37:53.926Z,28.43
2023-04-08T19:52:56.603Z,27.83
2023-04-08T20:07:59.342Z,23.13
2023-04-08T20:23:05.515Z,22.97
2023-04-08T20:38:07.917Z,27.90
2023-04-08T20:53:12.894Z,34.87
2023-04-08T21:08:15.659Z,31.40
2023-04-08T21:23:18.619Z,32.17
2023-04-08T21:38:21.116Z,27.70
2023-04-08T21:53:23.890Z,25.73
2023-04-08T22:08:27.817Z,25.37
2023-04-08T22:23:50.506Z,23.30
2023-04-08T22:38:53.315Z,24.10
2023-04-08T22:53:56.199Z,23.83
2023-04-08T23:08:58.683Z,22.83
2023-04-08T23:24:01.302Z,23.57
2023-04-08T23:39:03.831Z,21.57
2023-04-08T23:54:06.533Z,22.50
